sensor_id;sensor_type;location;lat;lon;timestamp;P1;durP1;ratioP1;P2;durP2;ratioP2
72095;SDS011;59968;51.084;16.748;2023-04-08T00:01:00;12.10;;;6.70;;
72095;SDS011;59968;51.084;16.748;2023-04-08T00:03:28;14.10;;;7.00;;
72095;SDS011;59968;51.084;16.748;2023-04-08T00:05:57;12.60;;;6.30;;
72095;SDS011;59968;51.084;16.748;2023-04-08T00:08:27;12.90;;;6.60;;
72095;SDS011;59968;51.084;16.748;2023-04-08T00:10:56;13.80;;;7.40;;
72095;SDS011;59968;51.084;16.748;2023-04-08T00:13:24;13.20;;;6.30;;
72095;SDS011;59968;51.084;16.748;2023-04-08T00:15:53;12.60;;;6.40;;
72095;SDS011;59968;51.084;16.748;2023-04-08T00:18:23;13.30;;;6.10;;
72095;SDS011;59968;51.084;16.748;2023-04-08T00:20:51;12.50;;;6.50;;
72095;SDS011;59968;51.084;16.748;2023-04-08T00:23:19;14.20;;;6.60;;
72095;SDS011;59968;51.084;16.748;2023-04-08T00:25:48;15.40;;;7.20;;
72095;SDS011;59968;51.084;16.748;2023-04-08T00:28:17;15.60;;;7.70;;
72095;SDS011;59968;51.084;16.748;2023-04-08T00:30:45;13.70;;;6.70;;
72095;SDS011;59968;51.084;16.748;2023-04-08T00:33:14;12.90;;;6.70;;
72095;SDS011;59968;51.084;16.748;2023-04-08T00:35:42;15.30;;;6.90;;
72095;SDS011;59968;51.084;16.748;2023-04-08T00:38:11;13.20;;;6.90;;
72095;SDS011;59968;51.084;16.748;2023-04-08T00:40:39;13.90;;;6.90;;
72095;SDS011;59968;51.084;16.748;2023-04-08T00:43:08;14.80;;;6.90;;
72095;SDS011;59968;51.084;16.748;2023-04-08T00:45:37;14.30;;;6.90;;
72095;SDS011;59968;51.084;16.748;2023-04-08T00:48:05;12.80;;;6.70;;
72095;SDS011;59968;51.084;16.748;2023-04-08T00:50:34;12.90;;;6.80;;
72095;SDS011;59968;51.084;16.748;2023-04-08T00:53:03;14.40;;;7.70;;
72095;SDS011;59968;51.084;16.748;2023-04-08T00:55:31;11.90;;;6.50;;
72095;SDS011;59968;51.084;16.748;2023-04-08T00:57:59;10.60;;;5.30;;
72095;SDS011;59968;51.084;16.748;2023-04-08T01:00:28;10.90;;;5.80;;
72095;SDS011;59968;51.084;16.748;2023-04-08T01:03:07;10.90;;;5.60;;
72095;SDS011;59968;51.084;16.748;2023-04-08T01:08:30;9.80;;;4.50;;
72095;SDS011;59968;51.084;16.748;2023-04-08T01:11:02;12.00;;;5.70;;
72095;SDS011;59968;51.084;16.748;2023-04-08T01:13:36;11.20;;;5.70;;
72095;SDS011;59968;51.084;16.748;2023-04-08T01:16:08;11.90;;;5.80;;
72095;SDS011;59968;51.084;16.748;2023-04-08T01:18:41;11.60;;;6.10;;
72095;SDS011;59968;51.084;16.748;2023-04-08T01:21:12;12.30;;;5.50;;
72095;SDS011;59968;51.084;16.748;2023-04-08T01:26:38;14.60;;;6.20;;
72095;SDS011;59968;51.084;16.748;2023-04-08T01:29:08;11.70;;;5.90;;
72095;SDS011;59968;51.084;16.748;2023-04-08T01:31:39;13.40;;;5.90;;
72095;SDS011;59968;51.084;16.748;2023-04-08T01:34:10;12.10;;;6.10;;
72095;SDS011;59968;51.084;16.748;2023-04-08T01:36:43;14.40;;;6.30;;
72095;SDS011;59968;51.084;16.748;2023-04-08T01:39:14;12.80;;;5.70;;
72095;SDS011;59968;51.084;16.748;2023-04-08T01:41:46;13.30;;;6.30;;
72095;SDS011;59968;51.084;16.748;2023-04-08T01:44:17;13.90;;;6.60;;
72095;SDS011;59968;51.084;16.748;2023-04-08T01:46:46;14.40;;;6.50;;
72095;SDS011;59968;51.084;16.748;2023-04-08T01:49:17;14.50;;;6.90;;
72095;SDS011;59968;51.084;16.748;2023-04-08T01:51:46;13.90;;;6.30;;
72095;SDS011;59968;51.084;16.748;2023-04-08T01:54:16;16.30;;;7.30;;
72095;SDS011;59968;51.084;16.748;2023-04-08T01:56:45;15.40;;;7.10;;
72095;SDS011;59968;51.084;16.748;2023-04-08T01:59:14;14.30;;;6.60;;
72095;SDS011;59968;51.084;16.748;2023-04-08T02:01:44;14.20;;;7.30;;
72095;SDS011;59968;51.084;16.748;2023-04-08T02:04:15;14.40;;;6.70;;
72095;SDS011;59968;51.084;16.748;2023-04-08T02:06:45;14.30;;;7.20;;
72095;SDS011;59968;51.084;16.748;2023-04-08T02:09:14;15.90;;;7.30;;
72095;SDS011;59968;51.084;16.748;2023-04-08T02:11:42;16.00;;;7.50;;
72095;SDS011;59968;51.084;16.748;2023-04-08T02:14:12;17.30;;;7.50;;
72095;SDS011;59968;51.084;16.748;2023-04-08T02:16:43;19.40;;;8.40;;
72095;SDS011;59968;51.084;16.748;2023-04-08T02:20:21;20.00;;;8.40;;
72095;SDS011;59968;51.084;16.748;2023-04-08T02:22:49;19.10;;;7.40;;
72095;SDS011;59968;51.084;16.748;2023-04-08T02:25:25;19.90;;;8.10;;
72095;SDS011;59968;51.084;16.748;2023-04-08T02:27:56;20.30;;;8.60;;
72095;SDS011;59968;51.084;16.748;2023-04-08T02:30:27;18.40;;;7.90;;
72095;SDS011;59968;51.084;16.748;2023-04-08T02:33:00;18.90;;;8.60;;
72095;SDS011;59968;51.084;16.748;2023-04-08T02:35:33;21.30;;;9.40;;
72095;SDS011;59968;51.084;16.748;2023-04-08T02:38:03;20.40;;;8.60;;
72095;SDS011;59968;51.084;16.748;2023-04-08T02:40:32;20.30;;;9.20;;
72095;SDS011;59968;51.084;16.748;2023-04-08T02:43:03;15.60;;;6.50;;
72095;SDS011;59968;51.084;16.748;2023-04-08T02:45:34;21.50;;;9.00;;
72095;SDS011;59968;51.084;16.748;2023-04-08T02:48:06;22.40;;;10.30;;
72095;SDS011;59968;51.084;16.748;2023-04-08T02:50:34;20.30;;;9.10;;
72095;SDS011;59968;51.084;16.748;2023-04-08T02:53:03;20.40;;;8.10;;
72095;SDS011;59968;51.084;16.748;2023-04-08T02:55:32;18.70;;;8.70;;
72095;SDS011;59968;51.084;16.748;2023-04-08T02:58:01;19.40;;;8.80;;
72095;SDS011;59968;51.084;16.748;2023-04-08T03:00:29;19.00;;;8.20;;
72095;SDS011;59968;51.084;16.748;2023-04-08T03:02:57;20.30;;;9.80;;
72095;SDS011;59968;51.084;16.748;2023-04-08T03:05:27;20.00;;;9.10;;
72095;SDS011;59968;51.084;16.748;2023-04-08T03:07:55;18.00;;;8.40;;
72095;SDS011;59968;51.084;16.748;2023-04-08T03:10:24;21.50;;;9.10;;
72095;SDS011;59968;51.084;16.748;2023-04-08T03:12:52;17.60;;;8.40;;
72095;SDS011;59968;51.084;16.748;2023-04-08T03:15:21;19.10;;;8.60;;
72095;SDS011;59968;51.084;16.748;2023-04-08T03:17:49;19.20;;;8.80;;
72095;SDS011;59968;51.084;16.748;2023-04-08T03:20:18;20.00;;;8.00;;
72095;SDS011;59968;51.084;16.748;2023-04-08T03:22:46;20.40;;;8.60;;
72095;SDS011;59968;51.084;16.748;2023-04-08T03:25:15;17.60;;;8.60;;
72095;SDS011;59968;51.084;16.748;2023-04-08T03:27:43;18.80;;;8.60;;
72095;SDS011;59968;51.084;16.748;2023-04-08T03:30:12;18.50;;;8.00;;
72095;SDS011;59968;51.084;16.748;2023-04-08T03:32:41;18.80;;;8.70;;
72095;SDS011;59968;51.084;16.748;2023-04-08T03:35:09;19.70;;;8.90;;
72095;SDS011;59968;51.084;16.748;2023-04-08T03:37:38;18.90;;;9.10;;
72095;SDS011;59968;51.084;16.748;2023-04-08T03:40:07;18.00;;;7.80;;
72095;SDS011;59968;51.084;16.748;2023-04-08T03:42:36;17.20;;;7.10;;
72095;SDS011;59968;51.084;16.748;2023-04-08T03:45:05;18.80;;;8.30;;
72095;SDS011;59968;51.084;16.748;2023-04-08T03:47:34;15.20;;;7.10;;
72095;SDS011;59968;51.084;16.748;2023-04-08T03:50:03;19.10;;;8.20;;
72095;SDS011;59968;51.084;16.748;2023-04-08T03:52:31;16.60;;;7.70;;
72095;SDS011;59968;51.084;16.748;2023-04-08T03:55:00;18.00;;;7.90;;
72095;SDS011;59968;51.084;16.748;2023-04-08T03:57:28;18.50;;;8.40;;
72095;SDS011;59968;51.084;16.748;2023-04-08T03:59:57;18.50;;;8.30;;
72095;SDS011;59968;51.084;16.748;2023-04-08T04:02:26;16.70;;;7.60;;
72095;SDS011;59968;51.084;16.748;2023-04-08T04:04:55;17.20;;;7.90;;
72095;SDS011;59968;51.084;16.748;2023-04-08T04:07:23;16.60;;;7.90;;
72095;SDS011;59968;51.084;16.748;2023-04-08T04:09:52;18.10;;;8.00;;
72095;SDS011;59968;51.084;16.748;2023-04-08T04:12:23;18.70;;;8.90;;
72095;SDS011;59968;51.084;16.748;2023-04-08T04:14:51;18.20;;;8.30;;
72095;SDS011;59968;51.084;16.748;2023-04-08T04:17:20;18.10;;;7.80;;
72095;SDS011;59968;51.084;16.748;2023-04-08T04:19:48;15.50;;;7.70;;
72095;SDS011;59968;51.084;16.748;2023-04-08T04:22:17;14.20;;;6.90;;
72095;SDS011;59968;51.084;16.748;2023-04-08T04:24:48;16.90;;;8.10;;
72095;SDS011;59968;51.084;16.748;2023-04-08T04:27:17;18.60;;;8.50;;
72095;SDS011;59968;51.084;16.748;2023-04-08T04:29:45;15.80;;;7.80;;
72095;SDS011;59968;51.084;16.748;2023-04-08T04:32:14;17.20;;;8.00;;
72095;SDS011;59968;51.084;16.748;2023-04-08T04:34:43;18.20;;;8.60;;
72095;SDS011;59968;51.084;16.748;2023-04-08T04:37:11;18.60;;;8.70;;
72095;SDS011;59968;51.084;16.748;2023-04-08T04:39:40;17.60;;;8.90;;
72095;SDS011;59968;51.084;16.748;2023-04-08T04:42:09;17.60;;;8.40;;
72095;SDS011;59968;51.084;16.748;2023-04-08T04:44:37;16.30;;;8.10;;
72095;SDS011;59968;51.084;16.748;2023-04-08T04:47:06;16.90;;;7.90;;
72095;SDS011;59968;51.084;16.748;2023-04-08T04:49:34;17.70;;;8.60;;
72095;SDS011;59968;51.084;16.748;2023-04-08T04:52:03;16.30;;;7.40;;
72095;SDS011;59968;51.084;16.748;2023-04-08T04:54:32;17.70;;;7.90;;
72095;SDS011;59968;51.084;16.748;2023-04-08T04:57:00;16.50;;;8.00;;
72095;SDS011;59968;51.084;16.748;2023-04-08T04:59:29;17.20;;;8.30;;
72095;SDS011;59968;51.084;16.748;2023-04-08T05:01:58;16.70;;;8.50;;
72095;SDS011;59968;51.084;16.748;2023-04-08T05:04:26;18.00;;;8.80;;
72095;SDS011;59968;51.084;16.748;2023-04-08T05:06:57;19.40;;;8.80;;
72095;SDS011;59968;51.084;16.748;2023-04-08T05:09:27;17.50;;;8.70;;
72095;SDS011;59968;51.084;16.748;2023-04-08T05:11:56;20.50;;;9.50;;
72095;SDS011;59968;51.084;16.748;2023-04-08T05:14:27;21.60;;;9.90;;
72095;SDS011;59968;51.084;16.748;2023-04-08T05:16:57;19.10;;;9.60;;
72095;SDS011;59968;51.084;16.748;2023-04-08T05:19:26;20.40;;;9.50;;
72095;SDS011;59968;51.084;16.748;2023-04-08T05:21:54;19.90;;;9.30;;
72095;SDS011;59968;51.084;16.748;2023-04-08T05:24:23;19.20;;;9.20;;
72095;SDS011;59968;51.084;16.748;2023-04-08T05:26:51;17.00;;;8.70;;
72095;SDS011;59968;51.084;16.748;2023-04-08T05:29:20;18.50;;;9.30;;
72095;SDS011;59968;51.084;16.748;2023-04-08T05:31:49;18.60;;;8.70;;
72095;SDS011;59968;51.084;16.748;2023-04-08T05:34:18;17.80;;;8.70;;
72095;SDS011;59968;51.084;16.748;2023-04-08T05:36:50;19.20;;;9.20;;
72095;SDS011;59968;51.084;16.748;2023-04-08T05:39:21;17.70;;;9.20;;
72095;SDS011;59968;51.084;16.748;2023-04-08T05:41:50;21.90;;;9.00;;
72095;SDS011;59968;51.084;16.748;2023-04-08T05:44:19;17.80;;;8.50;;
72095;SDS011;59968;51.084;16.748;2023-04-08T05:46:47;18.10;;;8.60;;
72095;SDS011;59968;51.084;16.748;2023-04-08T05:49:17;19.10;;;9.10;;
72095;SDS011;59968;51.084;16.748;2023-04-08T05:51:46;20.00;;;9.90;;
72095;SDS011;59968;51.084;16.748;2023-04-08T05:54:14;18.90;;;9.30;;
72095;SDS011;59968;51.084;16.748;2023-04-08T05:56:43;21.90;;;10.40;;
72095;SDS011;59968;51.084;16.748;2023-04-08T05:59:13;17.50;;;8.60;;
72095;SDS011;59968;51.084;16.748;2023-04-08T06:01:41;18.10;;;9.20;;
72095;SDS011;59968;51.084;16.748;2023-04-08T06:04:10;18.50;;;8.90;;
72095;SDS011;59968;51.084;16.748;2023-04-08T06:06:39;19.90;;;9.00;;
72095;SDS011;59968;51.084;16.748;2023-04-08T06:09:08;19.20;;;9.50;;
72095;SDS011;59968;51.084;16.748;2023-04-08T06:11:39;20.50;;;9.10;;
72095;SDS011;59968;51.084;16.748;2023-04-08T06:14:08;20.60;;;9.80;;
72095;SDS011;59968;51.084;16.748;2023-04-08T06:16:36;18.30;;;9.40;;
72095;SDS011;59968;51.084;16.748;2023-04-08T06:19:05;20.10;;;9.50;;
72095;SDS011;59968;51.084;16.748;2023-04-08T06:21:34;19.10;;;9.00;;
72095;SDS011;59968;51.084;16.748;2023-04-08T06:24:02;17.60;;;9.50;;
72095;SDS011;59968;51.084;16.748;2023-04-08T06:26:31;18.70;;;9.90;;
72095;SDS011;59968;51.084;16.748;2023-04-08T06:29:00;16.90;;;8.70;;
72095;SDS011;59968;51.084;16.748;2023-04-08T06:31:29;18.70;;;8.90;;
72095;SDS011;59968;51.084;16.748;2023-04-08T06:33:57;16.70;;;8.10;;
72095;SDS011;59968;51.084;16.748;2023-04-08T06:36:26;15.50;;;7.50;;
72095;SDS011;59968;51.084;16.748;2023-04-08T06:38:56;16.30;;;8.30;;
72095;SDS011;59968;51.084;16.748;2023-04-08T06:41:25;16.20;;;8.20;;
72095;SDS011;59968;51.084;16.748;2023-04-08T06:43:59;15.70;;;7.50;;
72095;SDS011;59968;51.084;16.748;2023-04-08T06:46:28;14.40;;;7.80;;
72095;SDS011;59968;51.084;16.748;2023-04-08T06:48:57;11.90;;;6.30;;
72095;SDS011;59968;51.084;16.748;2023-04-08T06:51:27;16.50;;;8.00;;
72095;SDS011;59968;51.084;16.748;2023-04-08T06:53:56;13.10;;;6.80;;
72095;SDS011;59968;51.084;16.748;2023-04-08T06:56:25;12.10;;;5.90;;
72095;SDS011;59968;51.084;16.748;2023-04-08T06:58:54;14.20;;;7.20;;
72095;SDS011;59968;51.084;16.748;2023-04-08T07:01:26;17.30;;;8.20;;
72095;SDS011;59968;51.084;16.748;2023-04-08T07:03:56;16.60;;;7.50;;
72095;SDS011;59968;51.084;16.748;2023-04-08T07:06:26;16.60;;;8.80;;
72095;SDS011;59968;51.084;16.748;2023-04-08T07:08:55;16.90;;;8.80;;
72095;SDS011;59968;51.084;16.748;2023-04-08T07:11:25;13.70;;;7.60;;
72095;SDS011;59968;51.084;16.748;2023-04-08T07:13:54;16.40;;;8.40;;
72095;SDS011;59968;51.084;16.748;2023-04-08T07:16:23;14.90;;;7.30;;
72095;SDS011;59968;51.084;16.748;2023-04-08T07:18:52;14.70;;;7.60;;
72095;SDS011;59968;51.084;16.748;2023-04-08T07:21:22;14.90;;;7.60;;
72095;SDS011;59968;51.084;16.748;2023-04-08T07:23:52;15.00;;;8.80;;
72095;SDS011;59968;51.084;16.748;2023-04-08T07:26:22;16.20;;;8.90;;
72095;SDS011;59968;51.084;16.748;2023-04-08T07:28:55;16.40;;;8.50;;
72095;SDS011;59968;51.084;16.748;2023-04-08T07:31:25;14.40;;;8.50;;
72095;SDS011;59968;51.084;16.748;2023-04-08T07:33:54;14.20;;;7.70;;
72095;SDS011;59968;51.084;16.748;2023-04-08T07:36:23;16.30;;;8.40;;
72095;SDS011;59968;51.084;16.748;2023-04-08T07:38:52;14.60;;;7.40;;
72095;SDS011;59968;51.084;16.748;2023-04-08T07:41:22;17.50;;;8.50;;
72095;SDS011;59968;51.084;16.748;2023-04-08T07:43:50;17.60;;;8.80;;
72095;SDS011;59968;51.084;16.748;2023-04-08T07:46:19;16.50;;;9.00;;
72095;SDS011;59968;51.084;16.748;2023-04-08T07:48:48;17.40;;;8.20;;
72095;SDS011;59968;51.084;16.748;2023-04-08T07:51:18;15.20;;;8.10;;
72095;SDS011;59968;51.084;16.748;2023-04-08T07:53:48;14.90;;;8.30;;
72095;SDS011;59968;51.084;16.748;2023-04-08T07:56:17;14.00;;;8.20;;
72095;SDS011;59968;51.084;16.748;2023-04-08T07:58:46;12.90;;;7.30;;
72095;SDS011;59968;51.084;16.748;2023-04-08T08:01:18;13.60;;;7.90;;
72095;SDS011;59968;51.084;16.748;2023-04-08T08:03:50;14.00;;;7.70;;
72095;SDS011;59968;51.084;16.748;2023-04-08T08:06:21;15.30;;;7.90;;
72095;SDS011;59968;51.084;16.748;2023-04-08T08:08:50;9.90;;;7.40;;
72095;SDS011;59968;51.084;16.748;2023-04-08T08:11:18;17.30;;;8.60;;
72095;SDS011;59968;51.084;16.748;2023-04-08T08:13:49;17.10;;;9.20;;
72095;SDS011;59968;51.084;16.748;2023-04-08T08:16:19;18.50;;;9.20;;
72095;SDS011;59968;51.084;16.748;2023-04-08T08:18:49;18.40;;;9.40;;
72095;SDS011;59968;51.084;16.748;2023-04-08T08:21:19;17.30;;;8.90;;
72095;SDS011;59968;51.084;16.748;2023-04-08T08:23:48;18.90;;;9.50;;
72095;SDS011;59968;51.084;16.748;2023-04-08T08:26:17;18.10;;;9.40;;
72095;SDS011;59968;51.084;16.748;2023-04-08T08:28:46;16.00;;;8.20;;
72095;SDS011;59968;51.084;16.748;2023-04-08T08:31:16;15.30;;;8.70;;
72095;SDS011;59968;51.084;16.748;2023-04-08T08:33:45;14.10;;;7.50;;
72095;SDS011;59968;51.084;16.748;2023-04-08T08:36:17;16.30;;;8.80;;
72095;SDS011;59968;51.084;16.748;2023-04-08T08:38:46;13.20;;;7.30;;
72095;SDS011;59968;51.084;16.748;2023-04-08T08:41:16;15.70;;;7.80;;
72095;SDS011;59968;51.084;16.748;2023-04-08T08:43:44;15.50;;;8.20;;
72095;SDS011;59968;51.084;16.748;2023-04-08T08:46:15;14.60;;;8.30;;
72095;SDS011;59968;51.084;16.748;2023-04-08T08:48:47;13.60;;;7.20;;
72095;SDS011;59968;51.084;16.748;2023-04-08T08:51:17;14.70;;;7.40;;
72095;SDS011;59968;51.084;16.748;2023-04-08T08:53:47;15.00;;;7.80;;
72095;SDS011;59968;51.084;16.748;2023-04-08T08:56:15;13.30;;;7.40;;
72095;SDS011;59968;51.084;16.748;2023-04-08T08:58:46;13.70;;;7.70;;
72095;SDS011;59968;51.084;16.748;2023-04-08T09:01:33;16.40;;;8.20;;
72095;SDS011;59968;51.084;16.748;2023-04-08T09:04:15;15.00;;;7.80;;
72095;SDS011;59968;51.084;16.748;2023-04-08T09:06:48;14.90;;;8.60;;
72095;SDS011;59968;51.084;16.748;2023-04-08T09:09:19;14.90;;;7.80;;
72095;SDS011;59968;51.084;16.748;2023-04-08T09:12:01;15.30;;;8.30;;
72095;SDS011;59968;51.084;16.748;2023-04-08T09:14:31;14.20;;;8.00;;
72095;SDS011;59968;51.084;16.748;2023-04-08T09:17:01;15.80;;;8.40;;
72095;SDS011;59968;51.084;16.748;2023-04-08T09:19:34;16.60;;;9.00;;
72095;SDS011;59968;51.084;16.748;2023-04-08T09:22:07;14.10;;;8.20;;
72095;SDS011;59968;51.084;16.748;2023-04-08T09:24:37;12.80;;;7.00;;
72095;SDS011;59968;51.084;16.748;2023-04-08T09:27:06;14.40;;;7.60;;
72095;SDS011;59968;51.084;16.748;2023-04-08T09:29:34;13.80;;;7.60;;
72095;SDS011;59968;51.084;16.748;2023-04-08T09:32:07;14.40;;;8.40;;
72095;SDS011;59968;51.084;16.748;2023-04-08T09:34:35;15.30;;;8.50;;
72095;SDS011;59968;51.084;16.748;2023-04-08T09:37:04;13.60;;;7.40;;
72095;SDS011;59968;51.084;16.748;2023-04-08T09:39:34;14.40;;;8.10;;
72095;SDS011;59968;51.084;16.748;2023-04-08T09:42:03;15.60;;;8.20;;
72095;SDS011;59968;51.084;16.748;2023-04-08T09:44:35;15.30;;;8.50;;
72095;SDS011;59968;51.084;16.748;2023-04-08T09:47:09;14.60;;;8.00;;
72095;SDS011;59968;51.084;16.748;2023-04-08T09:49:49;14.10;;;7.70;;
72095;SDS011;59968;51.084;16.748;2023-04-08T09:52:29;12.90;;;7.20;;
72095;SDS011;59968;51.084;16.748;2023-04-08T09:55:07;14.50;;;7.30;;
72095;SDS011;59968;51.084;16.748;2023-04-08T09:57:43;14.10;;;8.10;;
72095;SDS011;59968;51.084;16.748;2023-04-08T10:00:14;13.70;;;7.50;;
72095;SDS011;59968;51.084;16.748;2023-04-08T10:05:35;14.50;;;7.90;;
72095;SDS011;59968;51.084;16.748;2023-04-08T10:08:05;14.60;;;7.90;;
72095;SDS011;59968;51.084;16.748;2023-04-08T10:10:37;16.30;;;7.60;;
72095;SDS011;59968;51.084;16.748;2023-04-08T10:13:07;13.30;;;7.40;;
72095;SDS011;59968;51.084;16.748;2023-04-08T10:15:37;11.10;;;6.00;;
72095;SDS011;59968;51.084;16.748;2023-04-08T10:23:06;14.20;;;8.10;;
72095;SDS011;59968;51.084;16.748;2023-04-08T10:25:39;13.10;;;7.70;;
72095;SDS011;59968;51.084;16.748;2023-04-08T10:30:50;16.30;;;8.80;;
72095;SDS011;59968;51.084;16.748;2023-04-08T10:33:30;15.00;;;8.60;;
72095;SDS011;59968;51.084;16.748;2023-04-08T10:36:08;15.30;;;8.70;;
72095;SDS011;59968;51.084;16.748;2023-04-08T10:38:40;15.00;;;8.30;;
72095;SDS011;59968;51.084;16.748;2023-04-08T10:41:10;14.00;;;7.70;;
72095;SDS011;59968;51.084;16.748;2023-04-08T10:43:48;14.90;;;8.80;;
72095;SDS011;59968;51.084;16.748;2023-04-08T10:46:18;15.50;;;8.50;;
72095;SDS011;59968;51.084;16.748;2023-04-08T10:49:00;15.20;;;8.70;;
72095;SDS011;59968;51.084;16.748;2023-04-08T10:51:31;15.30;;;8.80;;
72095;SDS011;59968;51.084;16.748;2023-04-08T10:54:05;15.50;;;8.30;;
72095;SDS011;59968;51.084;16.748;2023-04-08T10:59:19;15.40;;;8.30;;
72095;SDS011;59968;51.084;16.748;2023-04-08T11:01:56;16.30;;;9.20;;
72095;SDS011;59968;51.084;16.748;2023-04-08T11:04:26;14.60;;;7.70;;
72095;SDS011;59968;51.084;16.748;2023-04-08T11:06:55;13.80;;;8.40;;
72095;SDS011;59968;51.084;16.748;2023-04-08T11:09:25;14.90;;;9.00;;
72095;SDS011;59968;51.084;16.748;2023-04-08T11:11:54;13.50;;;8.30;;
72095;SDS011;59968;51.084;16.748;2023-04-08T11:14:24;13.70;;;7.70;;
72095;SDS011;59968;51.084;16.748;2023-04-08T11:16:53;12.70;;;7.60;;
72095;SDS011;59968;51.084;16.748;2023-04-08T11:19:22;12.30;;;7.20;;
72095;SDS011;59968;51.084;16.748;2023-04-08T11:21:52;12.90;;;7.30;;
72095;SDS011;59968;51.084;16.748;2023-04-08T11:24:21;12.30;;;7.30;;
72095;SDS011;59968;51.084;16.748;2023-04-08T11:26:50;13.20;;;7.90;;
72095;SDS011;59968;51.084;16.748;2023-04-08T11:29:19;12.80;;;7.70;;
72095;SDS011;59968;51.084;16.748;2023-04-08T11:31:49;13.70;;;8.00;;
72095;SDS011;59968;51.084;16.748;2023-04-08T11:34:22;12.30;;;7.40;;
72095;SDS011;59968;51.084;16.748;2023-04-08T11:36:52;12.40;;;7.60;;
72095;SDS011;59968;51.084;16.748;2023-04-08T11:39:21;15.10;;;9.20;;
72095;SDS011;59968;51.084;16.748;2023-04-08T11:41:51;13.80;;;8.60;;
72095;SDS011;59968;51.084;16.748;2023-04-08T11:44:28;13.30;;;7.70;;
72095;SDS011;59968;51.084;16.748;2023-04-08T11:47:00;11.90;;;7.50;;
72095;SDS011;59968;51.084;16.748;2023-04-08T11:49:54;13.80;;;8.20;;
72095;SDS011;59968;51.084;16.748;2023-04-08T11:52:21;11.40;;;6.40;;
72095;SDS011;59968;51.084;16.748;2023-04-08T11:54:50;14.00;;;7.80;;
72095;SDS011;59968;51.084;16.748;2023-04-08T11:57:26;14.10;;;8.30;;
72095;SDS011;59968;51.084;16.748;2023-04-08T11:59:56;13.30;;;7.40;;
72095;SDS011;59968;51.084;16.748;2023-04-08T12:02:26;15.70;;;9.40;;
72095;SDS011;59968;51.084;16.748;2023-04-08T12:04:55;15.60;;;9.20;;
72095;SDS011;59968;51.084;16.748;2023-04-08T12:07:24;13.10;;;8.50;;
72095;SDS011;59968;51.084;16.748;2023-04-08T12:09:53;15.10;;;8.60;;
72095;SDS011;59968;51.084;16.748;2023-04-08T12:12:22;12.90;;;8.00;;
72095;SDS011;59968;51.084;16.748;2023-04-08T12:14:52;15.20;;;8.70;;
72095;SDS011;59968;51.084;16.748;2023-04-08T12:17:21;14.90;;;8.90;;
72095;SDS011;59968;51.084;16.748;2023-04-08T12:19:50;13.00;;;7.50;;
72095;SDS011;59968;51.084;16.748;2023-04-08T12:22:19;11.90;;;7.20;;
72095;SDS011;59968;51.084;16.748;2023-04-08T12:24:48;13.80;;;8.40;;
72095;SDS011;59968;51.084;16.748;2023-04-08T12:27:17;13.50;;;8.70;;
72095;SDS011;59968;51.084;16.748;2023-04-08T12:29:45;13.70;;;8.60;;
72095;SDS011;59968;51.084;16.748;2023-04-08T12:32:16;12.20;;;7.50;;
72095;SDS011;59968;51.084;16.748;2023-04-08T12:34:44;14.30;;;8.30;;
72095;SDS011;59968;51.084;16.748;2023-04-08T12:37:13;13.90;;;9.20;;
72095;SDS011;59968;51.084;16.748;2023-04-08T12:39:41;15.60;;;8.90;;
72095;SDS011;59968;51.084;16.748;2023-04-08T12:42:10;13.00;;;7.90;;
72095;SDS011;59968;51.084;16.748;2023-04-08T12:44:39;14.60;;;8.40;;
72095;SDS011;59968;51.084;16.748;2023-04-08T12:47:07;13.60;;;8.40;;
72095;SDS011;59968;51.084;16.748;2023-04-08T12:49:37;14.20;;;8.60;;
72095;SDS011;59968;51.084;16.748;2023-04-08T12:52:08;15.40;;;8.60;;
72095;SDS011;59968;51.084;16.748;2023-04-08T12:54:37;14.00;;;8.80;;
72095;SDS011;59968;51.084;16.748;2023-04-08T12:57:05;13.60;;;8.40;;
72095;SDS011;59968;51.084;16.748;2023-04-08T12:59:34;15.20;;;8.60;;
72095;SDS011;59968;51.084;16.748;2023-04-08T13:02:03;14.10;;;8.90;;
72095;SDS011;59968;51.084;16.748;2023-04-08T13:04:32;14.00;;;8.40;;
72095;SDS011;59968;51.084;16.748;2023-04-08T13:07:01;14.10;;;8.80;;
72095;SDS011;59968;51.084;16.748;2023-04-08T13:09:31;14.60;;;8.80;;
72095;SDS011;59968;51.084;16.748;2023-04-08T13:12:01;13.90;;;9.30;;
72095;SDS011;59968;51.084;16.748;2023-04-08T13:14:31;12.50;;;7.70;;
72095;SDS011;59968;51.084;16.748;2023-04-08T13:17:00;11.60;;;7.30;;
72095;SDS011;59968;51.084;16.748;2023-04-08T13:19:29;17.50;;;9.80;;
72095;SDS011;59968;51.084;16.748;2023-04-08T13:21:58;15.40;;;9.50;;
72095;SDS011;59968;51.084;16.748;2023-04-08T13:24:27;17.00;;;9.70;;
72095;SDS011;59968;51.084;16.748;2023-04-08T13:26:56;18.10;;;10.70;;
72095;SDS011;59968;51.084;16.748;2023-04-08T13:29:25;14.10;;;8.30;;
72095;SDS011;59968;51.084;16.748;2023-04-08T13:31:54;14.80;;;9.30;;
72095;SDS011;59968;51.084;16.748;2023-04-08T13:34:23;14.40;;;8.80;;
72095;SDS011;59968;51.084;16.748;2023-04-08T13:36:52;13.80;;;8.10;;
72095;SDS011;59968;51.084;16.748;2023-04-08T13:39:21;12.70;;;7.90;;
72095;SDS011;59968;51.084;16.748;2023-04-08T13:41:50;14.40;;;8.30;;
72095;SDS011;59968;51.084;16.748;2023-04-08T13:44:19;15.90;;;9.90;;
72095;SDS011;59968;51.084;16.748;2023-04-08T13:46:48;24.50;;;17.80;;
72095;SDS011;59968;51.084;16.748;2023-04-08T13:49:17;18.10;;;11.70;;
72095;SDS011;59968;51.084;16.748;2023-04-08T13:51:45;19.50;;;14.40;;
72095;SDS011;59968;51.084;16.748;2023-04-08T13:54:14;17.30;;;11.50;;
72095;SDS011;59968;51.084;16.748;2023-04-08T13:56:43;14.90;;;9.10;;
72095;SDS011;59968;51.084;16.748;2023-04-08T13:59:12;13.60;;;8.30;;
72095;SDS011;59968;51.084;16.748;2023-04-08T14:01:41;13.40;;;7.90;;
72095;SDS011;59968;51.084;16.748;2023-04-08T14:04:09;13.70;;;7.50;;
72095;SDS011;59968;51.084;16.748;2023-04-08T14:06:39;13.20;;;8.30;;
72095;SDS011;59968;51.084;16.748;2023-04-08T14:09:07;14.10;;;8.20;;
72095;SDS011;59968;51.084;16.748;2023-04-08T14:11:36;16.30;;;10.00;;
72095;SDS011;59968;51.084;16.748;2023-04-08T14:14:05;13.50;;;8.50;;
72095;SDS011;59968;51.084;16.748;2023-04-08T14:16:34;14.50;;;9.00;;
72095;SDS011;59968;51.084;16.748;2023-04-08T14:19:03;9.70;;;6.40;;
72095;SDS011;59968;51.084;16.748;2023-04-08T14:21:32;12.10;;;7.40;;
72095;SDS011;59968;51.084;16.748;2023-04-08T14:24:01;12.60;;;8.10;;
72095;SDS011;59968;51.084;16.748;2023-04-08T14:26:30;12.90;;;8.70;;
72095;SDS011;59968;51.084;16.748;2023-04-08T14:29:03;12.80;;;7.70;;
72095;SDS011;59968;51.084;16.748;2023-04-08T14:31:34;12.20;;;7.40;;
72095;SDS011;59968;51.084;16.748;2023-04-08T14:34:04;14.80;;;8.00;;
72095;SDS011;59968;51.084;16.748;2023-04-08T14:36:33;12.30;;;7.80;;
72095;SDS011;59968;51.084;16.748;2023-04-08T14:39:01;13.40;;;8.50;;
72095;SDS011;59968;51.084;16.748;2023-04-08T14:41:30;14.10;;;8.90;;
72095;SDS011;59968;51.084;16.748;2023-04-08T14:43:59;10.30;;;6.40;;
72095;SDS011;59968;51.084;16.748;2023-04-08T14:46:29;15.10;;;9.90;;
72095;SDS011;59968;51.084;16.748;2023-04-08T14:48:58;12.70;;;8.20;;
72095;SDS011;59968;51.084;16.748;2023-04-08T14:51:28;13.00;;;8.80;;
72095;SDS011;59968;51.084;16.748;2023-04-08T14:53:58;13.10;;;8.30;;
72095;SDS011;59968;51.084;16.748;2023-04-08T14:56:27;31.90;;;23.70;;